Uvalde Research's Hourly Summary for Wednesday, April 19, 2017
Hour Temp
(f)
RH
(%)
Solar Rad.
(MJ/m2)
Rainfall
(in)
Wind
(mph)
4/19/2017 12:00 AM 67 85 0 0 0.75
4/19/2017 1:00 AM 65 89 0 0 0
4/19/2017 2:00 AM 65 91 0 0 1.25
4/19/2017 3:00 AM 64 94 0 0 1.32
4/19/2017 4:00 AM 64 96 0 0 1.53
4/19/2017 5:00 AM 64 98 0 0 0.71
4/19/2017 6:00 AM 64 98 0 0 2.1
4/19/2017 7:00 AM 64 98 0.06 0 2.43
4/19/2017 8:00 AM 65 97 0.42 0 2.45
4/19/2017 9:00 AM 68 90 1.39 0 3.18
4/19/2017 10:00 AM 72 80 2.06 0 2.64
4/19/2017 11:00 AM 75 73 2.4 0 2.5
4/19/2017 12:00 PM 77 69 2.52 0 3.35
4/19/2017 1:00 PM 79 64 2.64 0 3.4
4/19/2017 2:00 PM 80 60 2.46 0 3.34
4/19/2017 3:00 PM 82 56 2.84 0 3.23
4/19/2017 4:00 PM 83 52 2.28 0 2.67
4/19/2017 5:00 PM 83 50 1.59 0 3.41
4/19/2017 6:00 PM 82 53 0.87 0 3.52
4/19/2017 7:00 PM 80 57 0.19 0 2.67
4/19/2017 8:00 PM 76 67 0 0 1.59
4/19/2017 9:00 PM 74 72 0 0 2.22
4/19/2017 10:00 PM 72 74 0 0 2.18
4/19/2017 11:00 PM 70 79 0 0 3.05
Data Summary 72 76 21.72 0.00 2.31